Time;durP1;ratioP1;P1;durP2;ratioP2;P2;SDS_P1;SDS_P2;PMS_P1;PMS_P2;Temp;Humidity;BMP_temperature;BMP_pressure;BME280_temperature;BME280_humidity;BME280_pressure;Samples;Min_cycle;Max_cycle;Signal;HPM_P1;HPM_P2
2022/05/05 00:01:32;;;;;;;6.87;5.77;;;8.40;99.90;;;;;;5079689;28;20555;-58
2022/05/05 00:04:02;;;;;;;10.27;6.27;;;8.30;99.90;;;;;;5080119;28;20489;-58
2022/05/05 00:06:33;;;;;;;7.43;5.90;;;8.40;99.90;;;;;;5079094;28;20523;-59
2022/05/05 00:09:01;;;;;;;8.77;6.40;;;8.30;99.90;;;;;;5079745;28;20489;-58
2022/05/05 00:14:27;;;;;;;9.23;5.10;;;8.40;99.90;;;;;;5078901;28;20903;-59
2022/05/05 00:16:57;;;;;;;10.97;6.17;;;8.40;99.90;;;;;;5079097;28;20453;-58
2022/05/05 00:19:28;;;;;;;8.13;6.40;;;8.50;99.90;;;;;;5058106;28;20443;-58
2022/05/05 00:21:56;;;;;;;7.17;5.40;;;8.40;99.90;;;;;;5064887;28;20552;-58
2022/05/05 00:24:23;;;;;;;7.40;6.33;;;8.50;99.90;;;;;;5079231;28;20464;-59
2022/05/05 00:26:49;;;;;;;15.70;7.50;;;8.50;99.90;;;;;;5079405;28;20972;-59
2022/05/05 00:29:21;;;;;;;11.20;5.73;;;8.50;99.90;;;;;;5078509;28;20604;-59
2022/05/05 00:31:48;;;;;;;12.77;6.60;;;8.50;99.90;;;;;;5079020;28;20461;-59
2022/05/05 00:34:20;;;;;;;9.83;6.03;;;8.50;99.90;;;;;;5078842;28;20519;-59
2022/05/05 00:36:47;;;;;;;10.87;7.37;;;8.50;99.90;;;;;;5079476;28;20471;-59
2022/05/05 00:39:16;;;;;;;8.30;6.33;;;8.60;99.90;;;;;;5078922;28;20485;-58
2022/05/05 00:41:45;;;;;;;11.77;6.57;;;8.60;99.90;;;;;;5078872;28;20584;-59
2022/05/05 00:44:13;;;;;;;8.50;6.20;;;8.70;99.90;;;;;;5078803;28;20461;-59
2022/05/05 00:46:47;;;;;;;10.60;6.20;;;8.70;99.90;;;;;;5078406;28;20493;-59
2022/05/05 00:49:15;;;;;;;9.93;6.43;;;8.70;99.90;;;;;;5078378;28;20992;-59
2022/05/05 00:51:45;;;;;;;7.70;6.03;;;8.60;99.90;;;;;;5078338;28;20461;-57
2022/05/05 00:54:12;;;;;;;7.77;6.63;;;8.50;99.90;;;;;;5078818;28;20461;-56
2022/05/05 00:56:47;;;;;;;9.57;6.37;;;8.50;99.90;;;;;;5078760;28;20462;-59
2022/05/05 00:59:14;;;;;;;9.70;6.30;;;8.40;99.90;;;;;;5077810;28;20457;-58
2022/05/05 01:01:43;;;;;;;10.73;6.83;;;8.50;99.90;;;;;;5078032;28;20548;-59
2022/05/05 01:04:10;;;;;;;11.80;6.17;;;8.50;99.90;;;;;;5078411;28;20544;-59
2022/05/05 01:06:41;;;;;;;11.37;6.30;;;8.50;99.90;;;;;;5078178;28;20461;-58
2022/05/05 01:09:10;;;;;;;11.33;6.43;;;8.60;99.90;;;;;;5075525;28;20485;-59
2022/05/05 01:11:37;;;;;;;10.83;7.93;;;8.60;99.90;;;;;;5076675;28;20534;-59
2022/05/05 01:14:07;;;;;;;8.23;6.50;;;8.60;99.90;;;;;;5076158;28;20492;-58
2022/05/05 01:16:34;;;;;;;8.83;7.20;;;8.60;99.90;;;;;;5077507;28;20576;-59
2022/05/05 01:19:03;;;;;;;9.50;6.57;;;8.60;99.90;;;;;;5077761;28;20457;-59
2022/05/05 01:21:34;;;;;;;9.43;6.80;;;8.60;99.90;;;;;;5076337;28;20604;-59
2022/05/05 01:24:04;;;;;;;10.60;6.10;;;8.60;99.90;;;;;;5077866;28;20491;-59
2022/05/05 01:29:18;;;;;;;10.77;6.67;;;8.60;99.90;;;;;;5077534;28;20523;-56
2022/05/05 01:32:16;;;;;;;7.73;6.23;;;8.60;99.90;;;;;;5076872;28;20504;-59
2022/05/05 01:34:43;;;;;;;9.43;6.70;;;8.60;99.90;;;;;;5077278;28;20458;-58
2022/05/05 01:37:22;;;;;;;9.40;7.30;;;8.70;99.90;;;;;;5077685;28;20937;-59
2022/05/05 01:39:49;;;;;;;10.67;7.70;;;8.60;99.90;;;;;;5077709;28;20461;-59
2022/05/05 01:42:20;;;;;;;11.90;7.13;;;8.60;99.90;;;;;;5076088;28;20465;-59
2022/05/05 01:44:47;;;;;;;10.30;7.37;;;8.70;99.90;;;;;;5065115;28;20573;-59
2022/05/05 01:47:16;;;;;;;9.30;6.73;;;8.70;99.90;;;;;;5074369;28;20526;-59
2022/05/05 01:49:46;;;;;;;9.10;6.33;;;8.70;99.90;;;;;;5076683;28;20493;-58
2022/05/05 01:52:16;;;;;;;8.00;6.40;;;8.60;99.90;;;;;;5074671;28;20857;-58
2022/05/05 01:54:59;;;;;;;7.80;6.80;;;8.60;99.90;;;;;;5076926;28;20874;-57
2022/05/05 01:57:31;;;;;;;9.27;6.37;;;8.70;99.90;;;;;;5077568;28;20473;-59
2022/05/05 02:00:00;;;;;;;6.67;5.50;;;8.70;99.90;;;;;;5077213;28;20458;-59
2022/05/05 02:02:30;;;;;;;7.00;5.73;;;8.70;99.90;;;;;;5076485;28;20457;-59
2022/05/05 02:05:03;;;;;;;9.27;5.60;;;8.70;99.90;;;;;;5077331;28;20777;-59
2022/05/05 02:07:31;;;;;;;9.43;6.13;;;8.80;99.90;;;;;;5076068;28;20896;-58
2022/05/05 02:10:01;;;;;;;10.77;6.97;;;8.70;99.90;;;;;;5076605;28;20489;-58
2022/05/05 02:12:31;;;;;;;9.97;6.63;;;8.80;99.90;;;;;;5075725;28;21002;-58
2022/05/05 02:14:58;;;;;;;7.30;6.60;;;8.80;99.90;;;;;;5076815;28;20525;-59
2022/05/05 02:17:25;;;;;;;13.13;7.23;;;8.80;99.90;;;;;;5076832;28;20485;-59
2022/05/05 02:19:52;;;;;;;12.17;6.83;;;8.80;99.90;;;;;;5077063;28;20493;-60
2022/05/05 02:22:19;;;;;;;10.93;7.43;;;8.80;99.90;;;;;;5076545;28;20457;-60
2022/05/05 02:24:47;;;;;;;9.70;6.70;;;8.90;99.90;;;;;;5077641;28;20458;-60
2022/05/05 02:27:16;;;;;;;9.20;6.27;;;8.90;99.90;;;;;;5076321;28;20531;-60
2022/05/05 02:29:43;;;;;;;7.77;6.30;;;8.90;99.90;;;;;;5076905;28;20503;-60
2022/05/05 02:32:15;;;;;;;10.50;6.83;;;8.90;99.90;;;;;;5076105;28;20566;-60
2022/05/05 02:34:42;;;;;;;7.73;6.90;;;8.90;99.90;;;;;;5077204;28;20484;-60
2022/05/05 02:40:10;;;;;;;7.83;7.03;;;8.80;99.90;;;;;;5076635;28;20528;-60
2022/05/05 02:42:37;;;;;;;10.03;7.33;;;8.80;99.90;;;;;;5076611;28;20461;-60
2022/05/05 02:45:04;;;;;;;9.70;6.53;;;8.70;99.90;;;;;;5077157;28;20461;-60
2022/05/05 02:47:31;;;;;;;8.80;6.70;;;8.70;99.90;;;;;;5076621;28;20951;-60
2022/05/05 02:50:00;;;;;;;11.00;7.37;;;8.80;99.90;;;;;;5076712;28;20493;-60
2022/05/05 02:52:29;;;;;;;8.17;6.77;;;8.80;99.90;;;;;;5076402;28;20552;-60
2022/05/05 02:54:56;;;;;;;9.80;7.10;;;8.80;99.90;;;;;;5076925;28;20564;-59
2022/05/05 02:57:25;;;;;;;14.50;8.23;;;8.80;99.90;;;;;;5075484;28;20757;-60
2022/05/05 02:59:55;;;;;;;11.07;6.63;;;8.80;99.90;;;;;;5075602;28;20493;-60
2022/05/05 03:02:27;;;;;;;8.67;7.10;;;8.90;99.90;;;;;;5076498;28;20461;-60
2022/05/05 03:04:54;;;;;;;9.43;6.80;;;8.80;99.90;;;;;;5057015;28;20758;-60
2022/05/05 03:07:39;;;;;;;12.17;6.93;;;8.80;99.90;;;;;;5056498;28;20874;-59
2022/05/05 03:10:07;;;;;;;7.87;6.80;;;8.80;99.90;;;;;;5070479;28;20546;-59
2022/05/05 03:12:38;;;;;;;10.00;7.00;;;8.80;99.90;;;;;;5076794;28;20800;-60
2022/05/05 03:15:07;;;;;;;6.80;6.10;;;8.80;99.90;;;;;;5076032;28;20436;-60
2022/05/05 03:17:38;;;;;;;8.10;6.47;;;8.80;99.90;;;;;;5076685;28;20467;-60
2022/05/05 03:20:09;;;;;;;10.63;6.50;;;8.80;99.90;;;;;;5075478;28;20971;-59
2022/05/05 03:22:42;;;;;;;8.60;7.10;;;8.80;99.90;;;;;;5076750;28;20465;-60
2022/05/05 03:25:10;;;;;;;10.13;6.57;;;8.80;99.90;;;;;;5076607;28;20822;-60
2022/05/05 03:27:40;;;;;;;11.03;7.20;;;8.80;99.90;;;;;;5076177;28;20508;-60
2022/05/05 03:30:11;;;;;;;10.20;7.20;;;8.70;99.90;;;;;;5075600;28;20596;-60
2022/05/05 03:32:38;;;;;;;12.07;8.23;;;8.70;99.90;;;;;;5082100;28;20473;-60
2022/05/05 03:35:06;;;;;;;9.47;6.63;;;8.80;99.90;;;;;;5083301;28;20518;-60
2022/05/05 03:37:42;;;;;;;12.00;7.40;;;8.90;99.90;;;;;;5093557;28;20541;-60
2022/05/05 03:40:12;;;;;;;10.60;6.63;;;8.90;99.90;;;;;;5091897;28;20453;-60
2022/05/05 03:42:41;;;;;;;10.20;7.50;;;8.90;99.90;;;;;;5076529;28;20469;-60
2022/05/05 03:45:11;;;;;;;11.23;7.07;;;8.90;99.90;;;;;;5076165;28;20905;-60
2022/05/05 03:47:42;;;;;;;9.63;7.43;;;8.90;99.90;;;;;;5076284;28;20484;-60
2022/05/05 03:50:10;;;;;;;12.73;7.57;;;8.90;99.90;;;;;;5078956;28;20547;-60
2022/05/05 03:52:37;;;;;;;11.27;7.37;;;9.00;99.90;;;;;;5060002;28;20759;-60
2022/05/05 03:55:08;;;;;;;9.43;7.50;;;8.90;99.90;;;;;;5064746;28;20497;-60
2022/05/05 03:57:37;;;;;;;12.03;7.77;;;8.90;99.90;;;;;;5080225;28;20485;-60
2022/05/05 04:00:08;;;;;;;10.83;7.70;;;8.90;99.90;;;;;;5079791;28;20465;-60
2022/05/05 04:02:38;;;;;;;9.83;7.30;;;8.80;99.90;;;;;;5078916;28;20472;-60
2022/05/05 04:05:06;;;;;;;11.50;7.57;;;8.90;99.90;;;;;;5079253;28;20462;-60
2022/05/05 04:07:33;;;;;;;7.67;6.90;;;8.90;99.90;;;;;;5079862;28;20515;-60
2022/05/05 04:10:00;;;;;;;10.73;7.10;;;8.90;99.90;;;;;;5079463;28;20493;-60
2022/05/05 04:12:27;;;;;;;12.40;8.10;;;9.00;99.90;;;;;;5078560;28;20465;-60
2022/05/05 04:14:54;;;;;;;8.43;7.53;;;9.00;99.90;;;;;;5079826;28;20465;-60
2022/05/05 04:17:27;;;;;;;9.47;7.47;;;9.10;99.90;;;;;;5078737;28;20945;-60
2022/05/05 04:19:54;;;;;;;8.60;6.70;;;9.10;99.90;;;;;;5078664;28;20457;-60
2022/05/05 04:22:22;;;;;;;8.70;7.20;;;9.10;99.90;;;;;;5078168;28;20492;-59
2022/05/05 04:24:51;;;;;;;11.53;7.20;;;9.10;99.90;;;;;;5078654;28;20555;-60
2022/05/05 04:27:18;;;;;;;12.10;8.10;;;9.20;99.90;;;;;;5086342;28;20475;-60
2022/05/05 04:29:48;;;;;;;8.60;7.00;;;9.30;99.90;;;;;;5099328;28;20492;-60
2022/05/05 04:32:22;;;;;;;13.03;7.90;;;9.30;99.90;;;;;;5097426;28;20465;-60
2022/05/05 04:34:58;;;;;;;12.80;8.03;;;9.30;99.90;;;;;;5079400;28;20484;-60
2022/05/05 04:37:28;;;;;;;9.10;7.67;;;9.40;99.90;;;;;;5079083;28;20465;-60
2022/05/05 04:39:55;;;;;;;11.20;8.93;;;9.40;99.90;;;;;;5077794;28;20449;-60
2022/05/05 04:42:22;;;;;;;9.23;7.77;;;9.40;99.90;;;;;;5078790;28;20562;-59
2022/05/05 04:44:54;;;;;;;10.00;7.27;;;9.40;99.90;;;;;;5078388;28;20976;-60
2022/05/05 04:47:21;;;;;;;8.33;6.70;;;9.50;99.90;;;;;;5078689;28;20457;-60
2022/05/05 04:49:56;;;;;;;9.73;8.03;;;9.50;99.90;;;;;;5078711;28;20496;-59
2022/05/05 04:52:31;;;;;;;11.30;7.00;;;9.50;99.90;;;;;;5078004;28;20472;-60
2022/05/05 04:55:00;;;;;;;9.17;7.33;;;9.50;99.90;;;;;;5076711;28;20476;-60
2022/05/05 04:57:27;;;;;;;11.20;6.70;;;9.50;99.90;;;;;;5076316;28;20478;-60
2022/05/05 04:59:56;;;;;;;9.27;7.10;;;9.40;99.90;;;;;;5084505;28;20469;-60
2022/05/05 05:02:23;;;;;;;12.77;7.30;;;9.50;99.90;;;;;;5081155;28;20804;-60
2022/05/05 05:04:53;;;;;;;11.43;7.83;;;9.50;99.90;;;;;;5084660;28;20461;-60
2022/05/05 05:07:27;;;;;;;8.87;7.30;;;9.50;99.90;;;;;;5084742;28;20525;-60
2022/05/05 05:10:06;;;;;;;8.30;7.07;;;9.60;99.90;;;;;;5079213;28;20485;-60
2022/05/05 05:12:39;;;;;;;10.77;7.70;;;9.60;99.90;;;;;;5057702;28;20512;-60
2022/05/05 05:15:08;;;;;;;10.57;8.37;;;9.70;99.90;;;;;;5067232;28;20507;-60
2022/05/05 05:17:35;;;;;;;11.30;6.93;;;9.80;99.90;;;;;;5077914;28;20472;-60
2022/05/05 05:20:03;;;;;;;9.63;6.40;;;9.90;99.90;;;;;;5076651;28;20446;-60
2022/05/05 05:22:32;;;;;;;13.27;7.23;;;10.00;99.90;;;;;;5075258;28;20461;-60
2022/05/05 05:25:02;;;;;;;10.70;6.80;;;10.00;99.90;;;;;;5075265;28;20493;-60
2022/05/05 05:27:30;;;;;;;10.93;7.47;;;10.10;99.90;;;;;;5076602;28;20502;-60
2022/05/05 05:30:00;;;;;;;9.93;8.27;;;10.20;99.90;;;;;;5075921;28;20571;-60
2022/05/05 05:32:32;;;;;;;8.60;7.00;;;10.30;99.90;;;;;;5075360;28;20461;-60
2022/05/05 05:35:01;;;;;;;10.70;8.70;;;10.40;99.90;;;;;;5076047;28;20461;-60
2022/05/05 05:37:31;;;;;;;11.17;7.93;;;10.50;99.90;;;;;;5076442;28;20542;-60
2022/05/05 05:39:58;;;;;;;12.10;8.27;;;10.60;99.90;;;;;;5075853;28;20454;-60
2022/05/05 05:42:28;;;;;;;13.77;8.90;;;10.60;99.90;;;;;;5076443;28;20450;-60
2022/05/05 05:44:58;;;;;;;11.23;7.93;;;10.60;99.90;;;;;;5074425;28;20909;-60
2022/05/05 05:47:28;;;;;;;12.43;7.90;;;10.70;99.90;;;;;;5075637;28;20461;-60
2022/05/05 05:49:55;;;;;;;11.50;9.17;;;10.80;99.90;;;;;;5072115;28;20574;-60
2022/05/05 05:52:25;;;;;;;12.10;7.50;;;10.80;99.90;;;;;;5068093;28;20503;-60
2022/05/05 05:54:58;;;;;;;9.97;8.47;;;10.90;99.90;;;;;;5076300;28;20457;-60
2022/05/05 05:57:25;;;;;;;10.30;7.97;;;11.00;99.90;;;;;;5074880;28;20519;-60
2022/05/05 05:59:54;;;;;;;11.93;8.40;;;11.00;99.90;;;;;;5076162;28;20472;-60
2022/05/05 06:05:12;;;;;;;14.80;8.17;;;11.20;99.90;;;;;;5076065;28;20452;-60
2022/05/05 06:07:41;;;;;;;13.60;8.30;;;11.30;99.90;;;;;;5075962;28;20472;-59
2022/05/05 06:10:10;;;;;;;10.60;7.97;;;11.50;99.90;;;;;;5076349;28;20500;-55
2022/05/05 06:12:40;;;;;;;12.70;8.40;;;11.60;99.90;;;;;;5076078;28;20469;-58
2022/05/05 06:15:08;;;;;;;13.80;9.20;;;11.70;99.90;;;;;;5076610;28;20462;-59
2022/05/05 06:17:35;;;;;;;11.40;7.80;;;11.80;99.90;;;;;;5075392;28;20465;-58
2022/05/05 06:20:07;;;;;;;16.70;10.53;;;11.90;99.90;;;;;;5074891;28;20551;-59
2022/05/05 06:22:37;;;;;;;65.50;36.80;;;12.10;99.90;;;;;;5073037;28;20467;-59
2022/05/05 06:25:11;;;;;;;26.23;17.40;;;12.20;99.90;;;;;;5073396;28;20480;-58
2022/05/05 06:27:40;;;;;;;17.33;10.10;;;12.30;99.90;;;;;;5074290;28;20464;-58
2022/05/05 06:30:11;;;;;;;9.60;8.10;;;12.50;99.90;;;;;;5076242;28;20493;-58
2022/05/05 06:32:38;;;;;;;12.47;9.03;;;12.60;99.90;;;;;;5075755;28;20468;-58
2022/05/05 06:35:17;;;;;;;14.50;9.33;;;12.60;99.90;;;;;;5074235;28;20917;-59
2022/05/05 06:37:50;;;;;;;17.73;9.90;;;12.60;99.90;;;;;;5071876;28;20465;-59
2022/05/05 06:40:19;;;;;;;17.07;10.70;;;12.70;99.90;;;;;;5075100;28;20552;-58
2022/05/05 06:42:48;;;;;;;15.63;9.37;;;12.90;99.90;;;;;;5069966;28;20472;-57
2022/05/05 06:45:22;;;;;;;17.50;9.07;;;13.00;99.90;;;;;;5073598;28;20468;-60
2022/05/05 06:47:52;;;;;;;15.13;9.17;;;12.90;99.90;;;;;;5075276;28;20473;-59
2022/05/05 06:50:25;;;;;;;16.20;10.60;;;13.10;99.90;;;;;;5075232;28;20528;-59
2022/05/05 06:52:59;;;;;;;11.27;9.67;;;13.10;99.90;;;;;;5076353;28;20493;-60
2022/05/05 06:55:28;;;;;;;13.17;9.97;;;12.90;99.90;;;;;;5075217;28;20973;-60
2022/05/05 06:58:01;;;;;;;11.77;9.90;;;12.90;99.90;;;;;;5074956;28;20511;-57
2022/05/05 07:01:51;;;;;;;15.27;10.63;;;12.80;99.90;;;;;;5075823;28;20489;-59
2022/05/05 07:03:16;;;;;;;15.03;10.00;;;12.90;99.90;;;;;;5075094;28;20457;-59
2022/05/05 07:05:47;;;;;;;17.07;9.97;;;13.30;99.90;;;;;;5076185;28;20461;-59
2022/05/05 07:08:25;;;;;;;14.40;11.13;;;13.60;99.90;;;;;;5075382;28;20531;-57
2022/05/05 07:10:57;;;;;;;17.73;10.20;;;13.80;99.90;;;;;;5076356;28;20496;-60
2022/05/05 07:13:28;;;;;;;18.90;9.87;;;14.00;99.90;;;;;;5070284;28;20465;-60
2022/05/05 07:16:02;;;;;;;13.30;9.83;;;14.20;99.90;;;;;;5075885;28;20538;-60
2022/05/05 07:18:36;;;;;;;17.90;9.80;;;14.50;99.90;;;;;;5075747;28;20508;-60
2022/05/05 07:21:09;;;;;;;15.70;10.70;;;14.70;99.90;;;;;;5074943;28;20760;-59
2022/05/05 07:23:36;;;;;;;12.77;9.60;;;15.10;99.90;;;;;;5067960;28;20550;-59
2022/05/05 07:26:09;;;;;;;17.97;13.17;;;15.50;99.90;;;;;;5079854;28;20544;-60
2022/05/05 07:28:36;;;;;;;12.87;9.10;;;15.90;99.90;;;;;;5077637;28;20469;-60
2022/05/05 07:31:03;;;;;;;16.17;9.10;;;16.30;99.90;;;;;;5080017;28;20484;-59
2022/05/05 07:33:35;;;;;;;16.13;9.47;;;16.30;99.90;;;;;;5079957;28;20961;-59
2022/05/05 07:36:21;;;;;;;15.20;7.83;;;16.60;99.90;;;;;;5079765;28;20464;-60
2022/05/05 07:38:51;;;;;;;16.20;10.03;;;16.90;99.90;;;;;;5078712;28;20967;-60
2022/05/05 07:41:23;;;;;;;15.73;9.10;;;16.90;99.90;;;;;;5079542;28;20551;-60
2022/05/05 07:44:00;;;;;;;10.87;9.07;;;17.50;99.90;;;;;;5079355;28;20472;-60
2022/05/05 07:46:27;;;;;;;15.03;9.93;;;17.70;99.90;;;;;;5080123;28;20770;-60
2022/05/05 07:48:55;;;;;;;14.00;8.67;;;18.40;99.90;;;;;;5078598;28;20461;-61
2022/05/05 07:51:22;;;;;;;15.30;9.70;;;18.80;99.90;;;;;;5079416;28;20843;-61
2022/05/05 07:56:34;;;;;;;15.70;10.50;;;19.00;99.90;;;;;;5078063;28;20448;-61
2022/05/05 07:59:03;;;;;;;15.20;10.20;;;19.20;99.90;;;;;;5077840;28;20749;-61
2022/05/05 08:01:30;;;;;;;13.90;9.60;;;19.10;99.90;;;;;;5078599;28;20468;-61
2022/05/05 08:04:07;;;;;;;13.30;9.77;;;19.00;99.90;;;;;;5074785;28;20878;-60
2022/05/05 08:06:37;;;;;;;14.23;10.60;;;19.40;99.90;;;;;;5078066;28;20564;-61
2022/05/05 08:09:07;;;;;;;15.30;10.73;;;19.20;99.90;;;;;;5079192;28;20457;-58
2022/05/05 08:11:37;;;;;;;13.37;12.03;;;19.40;99.90;;;;;;5060705;28;20642;-61
2022/05/05 08:14:11;;;;;;;13.03;10.93;;;19.00;99.90;;;;;;5078764;28;20578;-61
2022/05/05 08:16:40;;;;;;;18.00;12.17;;;17.80;99.90;;;;;;5077723;28;20557;-60
2022/05/05 08:19:09;;;;;;;17.40;12.10;;;17.40;99.90;;;;;;5077872;28;20469;-61
2022/05/05 08:21:40;;;;;;;18.47;12.87;;;17.70;99.90;;;;;;5076473;28;20544;-61
2022/05/05 08:29:38;;;;;;;16.53;12.40;;;18.80;99.90;;;;;;5068718;28;20440;-61
2022/05/05 08:32:06;;;;;;;17.47;12.87;;;18.30;99.90;;;;;;5077431;28;20493;-61
2022/05/05 08:34:33;;;;;;;17.83;11.87;;;17.90;99.90;;;;;;5078062;28;20461;-60
2022/05/05 08:37:03;;;;;;;12.70;9.50;;;17.70;99.90;;;;;;5077922;28;20466;-59
2022/05/05 08:39:30;;;;;;;12.97;11.33;;;17.90;99.90;;;;;;5078254;28;20505;-59
2022/05/05 08:41:58;;;;;;;16.00;10.93;;;18.10;99.90;;;;;;5073662;28;20485;-60
2022/05/05 08:44:39;;;;;;;12.37;9.83;;;18.70;99.90;;;;;;5075743;28;20885;-61
2022/05/05 08:47:09;;;;;;;12.70;10.80;;;18.60;99.90;;;;;;5074297;28;20517;-60
2022/05/05 08:49:37;;;;;;;13.57;11.10;;;18.90;99.90;;;;;;5075403;28;20466;-61
2022/05/05 08:52:09;;;;;;;18.63;12.10;;;19.20;99.90;;;;;;5075272;28;20576;-61
2022/05/05 08:54:39;;;;;;;15.57;10.73;;;20.10;99.90;;;;;;5071134;28;20472;-60
2022/05/05 08:57:11;;;;;;;14.03;11.13;;;20.70;99.90;;;;;;5076468;28;20469;-60
2022/05/05 08:59:41;;;;;;;15.47;13.43;;;20.30;99.90;;;;;;5074179;28;20530;-61
2022/05/05 09:02:10;;;;;;;14.33;11.40;;;21.20;99.90;;;;;;5078328;28;20511;-61
2022/05/05 09:04:46;;;;;;;14.20;12.10;;;21.20;99.90;;;;;;5076126;28;20558;-60
2022/05/05 09:07:13;;;;;;;15.87;12.13;;;21.60;99.90;;;;;;5075589;28;20523;-60
2022/05/05 09:10:04;;;;;;;17.10;13.10;;;21.90;99.90;;;;;;5078126;28;20955;-61
2022/05/05 09:12:35;;;;;;;15.80;12.50;;;22.30;99.90;;;;;;5077568;28;20493;-61
2022/05/05 09:15:08;;;;;;;17.50;13.20;;;20.50;99.90;;;;;;5077650;28;20500;-60
2022/05/05 09:17:36;;;;;;;13.13;11.53;;;19.90;99.90;;;;;;5076136;28;20465;-61
2022/05/05 09:20:04;;;;;;;16.63;14.07;;;20.60;99.90;;;;;;5076580;28;20461;-61
2022/05/05 09:22:32;;;;;;;15.00;13.60;;;21.10;99.90;;;;;;5077607;28;20465;-62
2022/05/05 09:25:08;;;;;;;18.97;14.57;;;21.60;99.90;;;;;;5077170;28;20462;-61
2022/05/05 09:27:39;;;;;;;16.50;13.30;;;22.40;99.90;;;;;;5076238;28;20958;-61
2022/05/05 09:30:12;;;;;;;15.47;13.57;;;22.10;99.90;;;;;;5077267;28;20465;-61
2022/05/05 09:32:43;;;;;;;15.47;12.90;;;22.90;99.90;;;;;;5076666;28;20515;-61
2022/05/05 09:35:12;;;;;;;14.83;12.97;;;23.00;99.90;;;;;;5077340;28;20465;-60
2022/05/05 09:37:43;;;;;;;19.93;12.60;;;23.50;99.90;;;;;;5076483;28;20505;-61
2022/05/05 09:40:13;;;;;;;14.57;13.07;;;23.80;99.90;;;;;;5077504;28;20836;-61
2022/05/05 09:42:46;;;;;;;20.20;14.37;;;23.60;99.90;;;;;;5074956;28;20469;-60
2022/05/05 09:48:07;;;;;;;16.63;14.93;;;22.90;99.90;;;;;;5061511;28;20478;-61
2022/05/05 09:50:43;;;;;;;17.07;13.60;;;22.80;99.90;;;;;;5082234;28;20479;-61
2022/05/05 09:58:54;;;;;;;15.93;12.60;;;20.50;99.90;;;;;;5073205;28;20972;-61
2022/05/05 10:01:25;;;;;;;21.37;13.93;;;21.20;99.90;;;;;;5071385;28;20471;-60
2022/05/05 10:04:02;;;;;;;17.03;14.97;;;19.50;99.90;;;;;;5070075;28;20508;-60
2022/05/05 10:06:36;;;;;;;17.63;14.67;;;18.40;99.90;;;;;;5074681;28;20916;-61
2022/05/05 10:09:05;;;;;;;16.23;14.20;;;18.50;99.90;;;;;;5074152;28;20605;-60
2022/05/05 10:11:33;;;;;;;16.70;15.00;;;18.40;99.90;;;;;;5076061;28;20514;-60
2022/05/05 10:14:05;;;;;;;17.77;15.70;;;17.90;99.90;;;;;;5074067;28;20513;-61
2022/05/05 10:16:34;;;;;;;20.23;14.87;;;18.00;99.90;;;;;;5087137;28;20932;-60
2022/05/05 10:19:06;;;;;;;21.80;14.43;;;18.70;99.90;;;;;;5075088;28;20468;-59
2022/05/05 10:21:46;;;;;;;18.80;13.93;;;18.60;99.90;;;;;;5072177;28;20522;-59
2022/05/05 10:24:20;;;;;;;16.57;14.57;;;18.60;99.90;;;;;;5066286;28;20480;-60
2022/05/05 10:26:52;;;;;;;20.30;14.93;;;19.40;99.90;;;;;;5075846;28;20469;-60
2022/05/05 10:29:40;;;;;;;22.03;14.90;;;20.20;99.90;;;;;;5075898;28;20526;-60
2022/05/05 10:32:16;;;;;;;21.90;14.67;;;21.40;99.90;;;;;;5075968;28;20500;-61
2022/05/05 10:34:45;;;;;;;15.77;14.17;;;22.50;99.90;;;;;;5076859;28;20555;-61
2022/05/05 10:37:16;;;;;;;15.90;14.30;;;23.20;99.90;;;;;;5075253;28;20457;-60
2022/05/05 10:39:51;;;;;;;18.30;15.00;;;23.90;99.90;;;;;;5070603;28;20483;-61
2022/05/05 10:42:24;;;;;;;15.13;13.53;;;22.50;99.90;;;;;;5066462;28;20472;-61
2022/05/05 10:45:12;;;;;;;16.07;14.37;;;21.60;99.90;;;;;;5069525;28;20465;-61
2022/05/05 10:48:08;;;;;;;16.60;14.30;;;22.70;99.90;;;;;;5069202;28;20517;-61
2022/05/05 10:50:39;;;;;;;15.93;13.33;;;23.10;99.90;;;;;;5067621;28;20906;-60
2022/05/05 10:53:07;;;;;;;19.03;15.60;;;23.40;99.90;;;;;;5069351;28;20493;-60
2022/05/05 10:55:45;;;;;;;16.40;14.50;;;21.90;99.90;;;;;;5062398;28;20505;-60
2022/05/05 10:58:13;;;;;;;16.73;15.03;;;20.80;99.90;;;;;;5070106;28;20564;-61
2022/05/05 11:00:43;;;;;;;18.17;16.07;;;20.90;99.90;;;;;;5061466;28;20543;-60
2022/05/05 11:03:16;;;;;;;17.20;15.53;;;21.60;99.90;;;;;;5073480;28;20909;-60
2022/05/05 11:05:47;;;;;;;17.50;13.80;;;21.20;99.90;;;;;;5072640;28;20480;-58
2022/05/05 11:08:34;;;;;;;19.43;13.47;;;21.30;99.90;;;;;;5065628;28;20462;-61
2022/05/05 11:21:31;;;;;;;15.50;14.00;;;21.90;99.90;;;;;;5069434;28;20448;-60
2022/05/05 11:22:50;;;;;;;13.60;12.30;;;20.30;99.90;;;;;;5069775;28;20473;-60
2022/05/05 11:25:21;;;;;;;14.13;12.10;;;20.30;99.90;;;;;;5064255;28;20468;-60
2022/05/05 11:27:56;;;;;;;13.97;12.67;;;20.20;99.90;;;;;;5067102;28;21007;-59
2022/05/05 11:30:23;;;;;;;14.87;13.33;;;20.40;99.90;;;;;;5065642;28;20840;-59
2022/05/05 11:32:53;;;;;;;14.17;12.87;;;21.30;99.90;;;;;;5064419;28;20884;-61
2022/05/05 11:35:30;;;;;;;16.90;13.20;;;22.10;99.90;;;;;;5062710;28;20509;-61
2022/05/05 11:38:10;;;;;;;15.43;11.80;;;22.30;99.90;;;;;;5072546;28;20556;-61
2022/05/05 11:40:38;;;;;;;12.27;11.10;;;22.30;99.90;;;;;;5071864;28;20497;-62
2022/05/05 11:45:55;;;;;;;12.10;10.90;;;22.60;99.90;;;;;;5060812;28;20915;-62
2022/05/05 11:48:23;;;;;;;13.27;11.87;;;22.20;99.90;;;;;;5069919;28;20472;-61
2022/05/05 11:50:52;;;;;;;15.17;13.57;;;22.80;99.90;;;;;;5067945;28;20465;-61
2022/05/05 11:53:22;;;;;;;15.80;12.90;;;22.10;99.90;;;;;;5071348;28;20489;-60
2022/05/05 11:55:57;;;;;;;16.40;13.50;;;21.30;99.90;;;;;;5074336;28;20560;-61
2022/05/05 12:04:14;;;;;;;16.63;13.00;;;20.10;99.90;;;;;;5064162;28;20480;-61
2022/05/05 12:06:46;;;;;;;15.07;13.57;;;19.00;99.90;;;;;;5064212;28;20461;-60
2022/05/05 12:09:20;;;;;;;16.10;12.40;;;18.80;99.90;;;;;;5065337;28;20516;-60
2022/05/05 12:11:53;;;;;;;14.63;12.67;;;18.60;99.90;;;;;;5069149;28;20929;-61
2022/05/05 12:14:23;;;;;;;12.97;11.00;;;18.90;99.90;;;;;;5072611;28;20458;-61
2022/05/05 12:16:52;;;;;;;14.33;10.63;;;19.00;99.90;;;;;;5068951;28;20485;-61
2022/05/05 12:19:26;;;;;;;11.40;10.33;;;20.70;99.90;;;;;;5071780;28;20457;-62
2022/05/05 12:21:55;;;;;;;11.00;10.00;;;22.40;99.90;;;;;;5067375;28;20498;-61
2022/05/05 12:24:25;;;;;;;12.53;11.17;;;22.70;99.90;;;;;;5061843;28;20477;-62
2022/05/05 12:27:15;;;;;;;12.07;10.87;;;22.80;99.90;;;;;;5071287;28;20528;-61
2022/05/05 12:29:46;;;;;;;12.80;10.13;;;24.20;99.90;;;;;;5071017;28;20458;-61
2022/05/05 12:32:18;;;;;;;12.80;11.60;;;22.90;99.90;;;;;;5074870;28;20817;-61
2022/05/05 12:34:47;;;;;;;12.33;11.10;;;22.50;99.90;;;;;;5073360;28;20903;-61
2022/05/05 12:37:18;;;;;;;12.53;11.23;;;22.30;99.90;;;;;;5073867;28;20468;-60
2022/05/05 12:40:01;;;;;;;11.30;9.77;;;22.50;99.90;;;;;;5073828;28;20897;-60
2022/05/05 12:42:41;;;;;;;12.70;11.10;;;22.00;99.90;;;;;;5072712;28;20568;-60
2022/05/05 12:45:20;;;;;;;15.03;12.10;;;21.10;99.90;;;;;;5070726;28;20472;-60
2022/05/05 12:47:50;;;;;;;12.03;10.80;;;21.00;99.90;;;;;;5073830;28;20818;-61
2022/05/05 12:50:35;;;;;;;13.53;10.40;;;20.90;99.90;;;;;;5066739;28;20559;-60
2022/05/05 13:01:33;;;;;;;13.90;10.53;;;18.80;99.90;;;;;;5074214;28;20436;-61
2022/05/05 13:04:05;;;;;;;11.60;10.30;;;18.70;99.90;;;;;;5071291;28;20469;-60
2022/05/05 13:06:37;;;;;;;12.07;10.73;;;19.10;99.90;;;;;;5076714;28;20831;-60
2022/05/05 13:09:08;;;;;;;11.37;10.20;;;19.00;99.90;;;;;;5077108;28;20461;-59
2022/05/05 13:11:37;;;;;;;12.03;10.73;;;19.00;99.90;;;;;;5061959;28;20557;-61
2022/05/05 13:14:08;;;;;;;15.27;12.70;;;18.80;99.90;;;;;;5069135;28;20470;-60
2022/05/05 13:16:37;;;;;;;13.47;10.50;;;19.00;99.90;;;;;;5057110;28;20989;-61
2022/05/05 13:19:06;;;;;;;14.20;9.60;;;19.10;99.90;;;;;;5060690;28;20469;-58
2022/05/05 13:21:38;;;;;;;11.50;10.37;;;19.40;99.90;;;;;;5060409;28;20565;-61
2022/05/05 13:24:08;;;;;;;10.67;9.40;;;19.20;99.90;;;;;;5063829;28;20481;-60
2022/05/05 13:26:35;;;;;;;13.23;9.87;;;19.00;99.90;;;;;;5058557;28;20956;-59
2022/05/05 13:29:04;;;;;;;10.77;9.77;;;19.20;99.90;;;;;;5065103;28;20893;-61
2022/05/05 13:31:35;;;;;;;11.33;10.23;;;19.40;99.90;;;;;;5061114;28;20821;-60
2022/05/05 13:34:02;;;;;;;10.33;9.10;;;19.60;99.90;;;;;;5067017;28;20893;-61
2022/05/05 13:36:32;;;;;;;13.03;10.90;;;19.40;99.90;;;;;;5062229;28;20495;-60
2022/05/05 13:39:02;;;;;;;11.40;10.13;;;18.90;99.90;;;;;;5062267;28;20543;-61
2022/05/05 13:41:29;;;;;;;12.57;10.20;;;19.20;99.90;;;;;;5069555;28;20905;-60
2022/05/05 13:43:59;;;;;;;10.50;9.40;;;19.30;99.90;;;;;;5070396;28;20465;-61
2022/05/05 13:46:29;;;;;;;12.53;9.90;;;19.70;99.90;;;;;;5064098;28;20910;-61
2022/05/05 13:48:57;;;;;;;10.67;9.53;;;19.70;99.90;;;;;;5057020;28;20470;-60
2022/05/05 13:51:24;;;;;;;16.87;9.47;;;19.50;99.90;;;;;;5060735;28;20466;-60